3PA7 weather

Nason Medical Center LLC Heliport
Roaring Spring, Pennsylvania, United States

Public forecast

Using degrees Fahrenheit for public forecast. Weather courtesy of forecast.io.

Closest aviation weather report (METAR) to Nason Medical Center LLC Heliport

Closest report is Altoona Blair County Airport, 4.1 nm (7.6 km) SE. Retrieved 2019/10/19 10:42 UTC (5 seconds ago):

KAOO 191042Z AUTO 20003KT 2SM BR CLR M01/M02 A3008 RMK AO2 I1001 T10111017

Closest aviation forecast (TAF) to Nason Medical Center LLC Heliport

Closest forecast is Altoona Blair County Airport, 4.1 nm (7.6 km) SE. Retrieved 2019/10/19 06:00 UTC (5 hours ago):

TAF KAOO 190559Z 1906/2006 00000KT P6SM FEW250 FM190800 00000KT P6SM VCFG FEW250 TEMPO 1910/1912 2SM BR SCT003 FM191330 16004KT P6SM SCT250